Time;durP1;ratioP1;P1;durP2;ratioP2;P2;SDS_P1;SDS_P2;PMS_P1;PMS_P2;Temp;Humidity;BMP_temperature;BMP_pressure;BME280_temperature;BME280_humidity;BME280_pressure;Samples;Min_cycle;Max_cycle;Signal;HPM_P1;HPM_P2
2022/12/04 00:02:19;;;;;;;86.63;32.45;;;1.00;99.90;;;;;;5021318;28;20040;-94
2022/12/04 00:04:44;;;;;;;82.97;32.75;;;1.00;99.90;;;;;;5024744;28;20071;-94
2022/12/04 00:07:10;;;;;;;84.90;32.05;;;1.00;99.90;;;;;;5015639;28;20050;-94
2022/12/04 00:09:36;;;;;;;89.68;35.17;;;1.00;99.90;;;;;;5024071;28;20057;-95
2022/12/04 00:12:01;;;;;;;82.53;31.75;;;1.00;99.90;;;;;;5025766;28;20029;-94
2022/12/04 00:14:27;;;;;;;92.45;34.65;;;1.00;99.90;;;;;;4994277;28;20620;-93
2022/12/04 00:16:52;;;;;;;90.30;35.05;;;1.00;99.90;;;;;;5026399;28;20018;-94
2022/12/04 00:19:19;;;;;;;93.82;34.13;;;1.00;99.90;;;;;;5028508;28;20574;-96
2022/12/04 00:21:45;;;;;;;91.93;34.38;;;1.00;99.90;;;;;;5030050;28;20112;-94
2022/12/04 00:24:12;;;;;;;91.20;34.88;;;1.00;99.90;;;;;;5017081;28;20068;-94
2022/12/04 00:26:38;;;;;;;83.00;32.80;;;1.00;99.90;;;;;;5007365;28;20054;-94
2022/12/04 00:29:07;;;;;;;87.55;32.95;;;1.00;99.90;;;;;;5026368;28;20030;-94
2022/12/04 00:31:33;;;;;;;93.45;35.20;;;1.00;99.90;;;;;;5004923;28;20033;-94
2022/12/04 00:33:59;;;;;;;81.38;31.95;;;1.00;99.90;;;;;;5018261;28;20034;-95
2022/12/04 00:36:27;;;;;;;92.28;36.17;;;1.00;99.90;;;;;;5031979;28;20029;-93
2022/12/04 00:38:53;;;;;;;91.38;33.05;;;1.00;99.90;;;;;;5032214;28;20032;-94
2022/12/04 00:41:21;;;;;;;92.97;35.30;;;1.00;99.90;;;;;;5024247;28;20052;-95
2022/12/04 00:43:47;;;;;;;86.97;33.90;;;1.00;99.90;;;;;;5025481;28;20113;-94
2022/12/04 00:46:13;;;;;;;80.88;31.95;;;1.00;99.90;;;;;;5019885;28;20030;-94
2022/12/04 00:48:39;;;;;;;83.95;32.83;;;1.00;99.90;;;;;;5024870;28;20037;-94
2022/12/04 00:51:07;;;;;;;90.40;33.92;;;1.00;99.90;;;;;;5020187;28;20030;-94
2022/12/04 00:53:32;;;;;;;93.20;35.65;;;1.00;99.90;;;;;;5045057;28;20032;-94
2022/12/04 00:56:02;;;;;;;95.88;36.80;;;0.90;99.90;;;;;;5036874;28;20025;-93
2022/12/04 00:58:27;;;;;;;91.90;35.67;;;0.90;99.90;;;;;;5046205;28;20041;-95
2022/12/04 01:01:08;;;;;;;94.97;36.75;;;1.00;99.90;;;;;;5025942;28;20040;-95
2022/12/04 01:03:34;;;;;;;86.00;34.72;;;1.00;99.90;;;;;;5024177;28;20037;-95
2022/12/04 01:06:00;;;;;;;91.57;35.60;;;0.90;99.90;;;;;;5024933;28;20018;-95
2022/12/04 01:08:25;;;;;;;92.20;35.40;;;0.90;99.90;;;;;;5030784;28;20037;-94
2022/12/04 01:10:51;;;;;;;85.38;32.22;;;1.00;99.90;;;;;;5046738;28;20048;-96
2022/12/04 01:13:17;;;;;;;94.90;34.13;;;1.00;99.90;;;;;;5046543;28;20033;-95
2022/12/04 01:15:43;;;;;;;89.95;33.88;;;0.90;99.90;;;;;;5028336;28;20025;-93
2022/12/04 01:18:09;;;;;;;90.72;34.80;;;0.90;99.90;;;;;;5029714;28;20030;-95
2022/12/04 01:20:35;;;;;;;98.10;36.65;;;0.90;99.90;;;;;;5027403;28;20025;-96
2022/12/04 01:23:00;;;;;;;93.38;35.10;;;1.00;99.90;;;;;;5039546;28;20072;-96
2022/12/04 01:25:26;;;;;;;97.22;35.70;;;0.90;99.90;;;;;;5039532;28;20497;-94
2022/12/04 01:27:52;;;;;;;92.13;36.70;;;0.90;99.90;;;;;;5026549;28;20042;-95
2022/12/04 01:30:17;;;;;;;97.63;36.25;;;0.90;99.90;;;;;;5023991;28;20018;-94
2022/12/04 01:32:44;;;;;;;87.07;32.53;;;0.90;99.90;;;;;;5026777;28;20038;-95
2022/12/04 01:35:12;;;;;;;89.28;35.20;;;0.90;99.90;;;;;;4998628;28;20021;-95
2022/12/04 01:37:37;;;;;;;77.22;33.78;;;0.90;99.90;;;;;;5045953;28;20037;-93
2022/12/04 01:40:05;;;;;;;96.75;37.13;;;0.90;99.90;;;;;;5013173;28;20112;-94
2022/12/04 01:42:33;;;;;;;89.75;36.00;;;0.90;99.90;;;;;;5034854;28;20045;-93
2022/12/04 01:45:23;;;;;;;98.93;35.40;;;0.90;99.90;;;;;;5024918;28;20026;-94
2022/12/04 01:47:49;;;;;;;92.75;36.60;;;0.90;99.90;;;;;;5025506;28;20041;-93
2022/12/04 01:50:15;;;;;;;85.72;33.95;;;0.90;99.90;;;;;;5019946;28;20026;-93
2022/12/04 01:52:40;;;;;;;84.82;33.63;;;0.90;99.90;;;;;;5025269;28;20048;-94
2022/12/04 01:55:07;;;;;;;92.97;38.72;;;0.90;99.90;;;;;;5025008;28;20045;-95
2022/12/04 01:57:34;;;;;;;105.93;38.88;;;0.90;99.90;;;;;;5014548;28;20057;-95
2022/12/04 02:00:08;;;;;;;99.85;37.45;;;0.90;99.90;;;;;;5006956;28;20034;-94
2022/12/04 02:02:37;;;;;;;85.78;33.58;;;1.00;99.90;;;;;;5013463;28;20029;-93
2022/12/04 02:05:06;;;;;;;92.80;36.00;;;0.90;99.90;;;;;;5026637;28;20109;-94
2022/12/04 02:07:35;;;;;;;90.07;35.72;;;0.90;99.90;;;;;;5020406;28;20071;-94
2022/12/04 02:10:05;;;;;;;85.05;31.83;;;0.90;99.90;;;;;;5017431;28;20044;-93
2022/12/04 02:12:37;;;;;;;80.57;33.03;;;0.90;99.90;;;;;;5010484;28;20042;-93
2022/12/04 02:15:11;;;;;;;95.53;37.05;;;0.90;99.90;;;;;;5046731;28;20049;-95
2022/12/04 02:17:50;;;;;;;97.22;37.80;;;0.90;99.90;;;;;;5037009;28;20310;-93
2022/12/04 02:20:38;;;;;;;86.53;35.58;;;0.90;99.90;;;;;;5021889;28;20153;-94
2022/12/04 02:23:46;;;;;;;90.13;36.90;;;0.90;99.90;;;;;;5018007;28;20092;-92
2022/12/04 02:26:32;;;;;;;90.70;34.53;;;0.90;99.90;;;;;;5008770;28;20049;-94
2022/12/04 02:29:10;;;;;;;96.72;37.35;;;0.90;99.90;;;;;;5036827;28;20087;-94
2022/12/04 02:31:42;;;;;;;96.25;36.42;;;0.90;99.90;;;;;;5031003;28;20048;-94
2022/12/04 02:34:15;;;;;;;99.60;38.13;;;0.90;99.90;;;;;;5015744;28;20479;-93
2022/12/04 02:36:51;;;;;;;92.38;36.55;;;0.90;99.90;;;;;;5024786;28;20433;-93
2022/12/04 02:39:38;;;;;;;89.40;35.97;;;0.90;99.90;;;;;;5022632;28;20132;-94
2022/12/04 02:42:11;;;;;;;83.18;31.52;;;1.00;99.90;;;;;;5023439;28;20041;-95
2022/12/04 02:44:49;;;;;;;95.30;36.30;;;1.00;99.90;;;;;;5020545;28;20203;-93
2022/12/04 02:47:20;;;;;;;92.95;35.67;;;1.00;99.90;;;;;;5023983;28;20053;-94
2022/12/04 02:49:54;;;;;;;87.78;35.05;;;1.00;99.90;;;;;;5016396;28;20032;-94
2022/12/04 02:52:27;;;;;;;86.90;33.58;;;1.00;99.90;;;;;;5012861;28;20053;-93
2022/12/04 02:55:03;;;;;;;93.05;37.22;;;1.00;99.90;;;;;;5034862;28;20640;-94
2022/12/04 02:57:33;;;;;;;96.78;37.20;;;1.00;99.90;;;;;;4987824;28;20050;-92
2022/12/04 03:00:07;;;;;;;100.57;36.60;;;0.90;99.90;;;;;;5000304;28;20510;-94
2022/12/04 03:02:38;;;;;;;97.22;36.10;;;1.00;99.90;;;;;;4996923;28;20033;-94
2022/12/04 03:05:10;;;;;;;92.28;34.30;;;1.00;99.90;;;;;;5000165;28;20038;-96
2022/12/04 03:07:59;;;;;;;95.90;37.67;;;1.00;99.90;;;;;;4999179;28;20035;-93
2022/12/04 03:10:33;;;;;;;90.18;35.85;;;1.00;99.90;;;;;;4985218;28;20077;-94
2022/12/04 03:13:14;;;;;;;83.65;31.60;;;0.90;99.90;;;;;;5011796;28;20057;-94
2022/12/04 03:16:00;;;;;;;91.93;36.35;;;1.00;99.90;;;;;;5002165;28;20396;-90
2022/12/04 03:18:30;;;;;;;93.32;36.53;;;1.00;99.90;;;;;;5000021;28;20037;-93
2022/12/04 03:21:02;;;;;;;77.97;30.80;;;1.00;99.90;;;;;;4982494;28;20030;-94
2022/12/04 03:23:38;;;;;;;87.35;35.30;;;1.00;99.90;;;;;;4995501;28;20022;-93
2022/12/04 03:26:13;;;;;;;94.60;34.67;;;1.00;99.90;;;;;;5018528;28;20054;-95
2022/12/04 03:28:44;;;;;;;97.50;37.17;;;1.00;99.90;;;;;;4977008;28;20038;-94
2022/12/04 03:31:10;;;;;;;95.45;35.10;;;1.00;99.90;;;;;;5011058;28;20065;-94
2022/12/04 03:33:49;;;;;;;99.70;37.20;;;1.00;99.90;;;;;;5000687;28;20026;-94
2022/12/04 03:36:25;;;;;;;83.82;35.10;;;1.00;99.90;;;;;;4983127;28;20042;-94
2022/12/04 03:38:57;;;;;;;92.40;35.78;;;1.00;99.90;;;;;;4999121;28;20051;-94
2022/12/04 03:41:41;;;;;;;;;;;1.00;99.90;;;;;;4989103;28;20027;-94
2022/12/04 03:44:22;;;;;;;87.40;33.28;;;1.00;99.90;;;;;;5009226;28;19920;-96
2022/12/04 03:47:07;;;;;;;91.65;35.22;;;1.00;99.90;;;;;;4997385;28;20026;-95
2022/12/04 03:49:38;;;;;;;92.30;33.70;;;1.00;99.90;;;;;;4986754;28;20160;-94
2022/12/04 03:52:28;;;;;;;91.38;34.50;;;1.00;99.90;;;;;;5011226;28;20037;-95
2022/12/04 03:55:09;;;;;;;96.35;36.00;;;1.00;99.90;;;;;;5005413;28;20030;-95
2022/12/04 03:57:40;;;;;;;82.13;32.57;;;1.00;99.90;;;;;;5012609;28;20049;-95
2022/12/04 04:00:17;;;;;;;82.60;34.95;;;1.00;99.90;;;;;;5014070;28;20105;-96
2022/12/04 04:03:05;;;;;;;84.28;33.47;;;1.10;99.90;;;;;;5010823;28;20025;-95
2022/12/04 04:05:32;;;;;;;91.55;34.63;;;1.00;99.90;;;;;;4984455;28;20050;-94
2022/12/04 04:10:53;;;;;;;93.18;34.88;;;1.00;99.90;;;;;;5013732;28;20061;-95
2022/12/04 04:24:39;;;;;;;91.63;34.60;;;1.10;99.90;;;;;;5021669;28;20045;-95
2022/12/04 04:27:06;;;;;;;89.47;34.50;;;1.10;99.90;;;;;;5009281;28;20041;-95
2022/12/04 04:29:32;;;;;;;89.97;35.90;;;1.10;99.90;;;;;;4981001;28;20057;-93
2022/12/04 04:32:17;;;;;;;84.35;34.33;;;1.00;99.90;;;;;;5005023;28;20058;-94
2022/12/04 04:34:42;;;;;;;92.07;37.42;;;1.10;99.90;;;;;;5004580;28;20023;-94
2022/12/04 04:37:27;;;;;;;91.03;36.15;;;1.10;99.90;;;;;;5009531;28;20037;-95
2022/12/04 04:39:59;;;;;;;89.97;36.47;;;1.10;99.90;;;;;;5011958;28;20030;-94
2022/12/04 04:42:48;;;;;;;90.70;35.10;;;1.10;99.90;;;;;;5015372;28;20456;-94
2022/12/04 04:45:21;;;;;;;86.90;33.17;;;1.10;99.90;;;;;;5011234;28;20034;-93
2022/12/04 04:47:59;;;;;;;81.93;31.95;;;1.10;99.90;;;;;;5025988;28;20037;-94
2022/12/04 04:50:26;;;;;;;98.18;38.53;;;1.00;99.90;;;;;;5011436;28;20033;-92
2022/12/04 04:52:57;;;;;;;94.05;35.60;;;1.00;99.90;;;;;;5023189;28;20604;-94
2022/12/04 04:55:23;;;;;;;97.03;36.73;;;1.00;99.90;;;;;;5018973;28;20079;-92
2022/12/04 04:57:49;;;;;;;89.28;34.92;;;1.00;99.90;;;;;;5037804;28;20049;-93
2022/12/04 05:00:18;;;;;;;93.55;35.92;;;1.00;99.90;;;;;;5060228;28;20056;-96
2022/12/04 05:02:44;;;;;;;94.93;36.72;;;1.00;99.90;;;;;;5039510;28;20040;-95
2022/12/04 05:05:10;;;;;;;91.38;35.88;;;1.00;99.90;;;;;;5029901;28;20104;-94
2022/12/04 05:07:37;;;;;;;98.70;38.65;;;1.10;99.90;;;;;;5025412;28;20373;-94
2022/12/04 05:10:03;;;;;;;84.35;33.78;;;1.00;99.90;;;;;;5042225;28;20032;-92
2022/12/04 05:12:29;;;;;;;91.30;37.90;;;1.10;99.90;;;;;;5031114;28;20036;-96
2022/12/04 05:14:54;;;;;;;87.30;34.90;;;1.10;99.90;;;;;;5038698;28;20049;-94
2022/12/04 05:17:20;;;;;;;90.30;35.25;;;1.10;99.90;;;;;;5034174;28;20044;-94
2022/12/04 05:19:55;;;;;;;88.90;37.20;;;1.10;99.90;;;;;;5033431;28;20053;-94
2022/12/04 05:22:28;;;;;;;89.05;33.90;;;1.10;99.90;;;;;;5041130;28;20026;-96
2022/12/04 05:24:53;;;;;;;;;;;1.10;99.90;;;;;;5044122;28;20025;-95
2022/12/04 05:27:20;;;;;;;74.15;29.75;;;1.10;99.90;;;;;;5046600;28;19960;-94
2022/12/04 05:29:45;;;;;;;80.25;32.17;;;1.10;99.90;;;;;;5027517;28;20061;-96
2022/12/04 05:32:11;;;;;;;95.65;35.83;;;1.00;99.90;;;;;;5029369;28;20034;-94
2022/12/04 05:34:37;;;;;;;75.05;30.38;;;1.00;99.90;;;;;;5025760;28;20029;-95
2022/12/04 05:37:03;;;;;;;83.32;32.22;;;1.00;99.90;;;;;;5032533;28;20057;-94
2022/12/04 05:39:29;;;;;;;76.25;30.13;;;1.10;99.90;;;;;;5024742;28;20010;-94
2022/12/04 05:41:56;;;;;;;86.82;34.10;;;1.10;99.90;;;;;;5019451;28;20029;-95
2022/12/04 05:44:23;;;;;;;86.90;34.38;;;1.10;99.90;;;;;;5028866;28;20041;-94
2022/12/04 05:46:49;;;;;;;77.97;31.17;;;1.10;99.90;;;;;;5021849;28;20079;-96
2022/12/04 05:49:15;;;;;;;89.18;34.33;;;1.00;99.90;;;;;;5020203;28;20471;-94
2022/12/04 05:51:43;;;;;;;86.35;36.75;;;1.10;99.90;;;;;;5017465;28;20087;-94
2022/12/04 05:54:16;;;;;;;86.75;33.08;;;1.10;99.90;;;;;;5017289;28;20484;-95
2022/12/04 05:56:41;;;;;;;;;;;1.10;99.90;;;;;;5023558;28;20077;-95
2022/12/04 05:59:07;;;;;;;79.97;32.25;;;1.10;99.90;;;;;;5005881;28;19977;-95
2022/12/04 06:01:40;;;;;;;84.28;32.83;;;1.10;99.90;;;;;;5017894;28;20017;-95
2022/12/04 06:04:06;;;;;;;70.53;28.45;;;1.10;99.90;;;;;;4998320;28;20035;-96
2022/12/04 06:06:36;;;;;;;76.75;31.90;;;1.10;99.90;;;;;;4997872;28;20157;-96
2022/12/04 06:09:03;;;;;;;86.93;34.58;;;1.10;99.90;;;;;;5012172;28;20093;-96
2022/12/04 06:11:31;;;;;;;81.13;33.28;;;1.10;99.90;;;;;;5023538;28;20034;-94
2022/12/04 06:13:59;;;;;;;81.22;33.70;;;1.10;99.90;;;;;;5012400;28;20018;-95
2022/12/04 06:16:27;;;;;;;82.00;33.63;;;1.10;99.90;;;;;;5023629;28;20056;-96
2022/12/04 06:18:56;;;;;;;82.60;34.45;;;1.10;99.90;;;;;;5030600;28;20052;-94
2022/12/04 06:21:23;;;;;;;82.82;33.08;;;1.10;99.90;;;;;;5029631;28;20053;-96
2022/12/04 06:23:50;;;;;;;83.25;32.97;;;1.10;99.90;;;;;;5007193;28;20041;-96
2022/12/04 06:26:16;;;;;;;80.38;33.00;;;1.10;99.90;;;;;;5006508;28;20014;-96
2022/12/04 06:28:42;;;;;;;81.40;33.20;;;1.10;99.90;;;;;;5013847;28;20062;-95
2022/12/04 06:31:10;;;;;;;80.63;33.67;;;1.10;99.90;;;;;;5012134;28;20075;-95
2022/12/04 06:33:38;;;;;;;80.35;32.45;;;1.10;99.90;;;;;;5022954;28;20082;-94
2022/12/04 06:36:10;;;;;;;79.50;32.17;;;1.10;99.90;;;;;;5017819;28;20026;-92
2022/12/04 06:38:36;;;;;;;76.13;30.98;;;1.10;99.90;;;;;;5004411;28;20036;-94
2022/12/04 06:41:04;;;;;;;77.30;30.63;;;1.10;99.90;;;;;;4995842;28;20024;-94
2022/12/04 06:46:05;;;;;;;77.07;31.80;;;1.10;99.90;;;;;;5068848;23;20070;-94
2022/12/04 06:48:31;;;;;;;77.00;31.33;;;1.10;99.90;;;;;;5071798;28;20082;-95
2022/12/04 06:51:07;;;;;;;79.25;31.73;;;1.10;99.90;;;;;;5064071;28;20042;-95
2022/12/04 06:53:33;;;;;;;77.07;32.15;;;1.10;99.90;;;;;;5061047;28;20043;-94
2022/12/04 06:56:02;;;;;;;83.07;32.70;;;1.10;99.90;;;;;;5067447;28;20104;-94
2022/12/04 06:58:36;;;;;;;74.88;31.33;;;1.10;99.90;;;;;;5072475;28;20036;-95
2022/12/04 07:01:13;;;;;;;80.72;30.60;;;1.10;99.90;;;;;;5053013;28;20029;-94
2022/12/04 07:03:39;;;;;;;82.13;33.17;;;1.10;99.90;;;;;;5047880;28;20128;-94
2022/12/04 07:06:19;;;;;;;73.35;30.55;;;1.10;99.90;;;;;;5065624;28;20059;-95
2022/12/04 07:08:47;;;;;;;77.18;31.92;;;1.10;99.90;;;;;;5066705;28;20250;-94
2022/12/04 07:11:14;;;;;;;84.97;33.85;;;1.20;99.90;;;;;;5066761;28;20029;-95
2022/12/04 07:13:41;;;;;;;82.28;32.42;;;1.10;99.90;;;;;;5069332;28;20025;-94
2022/12/04 07:16:09;;;;;;;75.13;29.92;;;1.10;99.90;;;;;;5068297;28;20033;-95
2022/12/04 07:18:36;;;;;;;79.32;31.50;;;1.20;99.90;;;;;;5060976;28;20032;-95
2022/12/04 07:21:08;;;;;;;73.55;30.33;;;1.20;99.90;;;;;;5074941;28;20493;-95
2022/12/04 07:23:37;;;;;;;77.80;31.13;;;1.20;99.90;;;;;;5060712;28;20025;-95
2022/12/04 07:26:05;;;;;;;81.70;31.10;;;1.20;99.90;;;;;;5064032;28;20021;-95
2022/12/04 07:28:31;;;;;;;67.28;27.23;;;1.20;99.90;;;;;;5064697;28;20029;-95
2022/12/04 07:30:56;;;;;;;70.55;29.65;;;1.20;99.90;;;;;;5058670;28;20104;-95
2022/12/04 07:33:22;;;;;;;68.32;28.50;;;1.20;99.90;;;;;;5060499;28;21191;-95
2022/12/04 07:35:59;;;;;;;75.05;30.98;;;1.20;99.90;;;;;;5062608;28;20021;-95
2022/12/04 07:38:27;;;;;;;76.43;30.77;;;1.20;99.90;;;;;;5047912;28;20064;-94
2022/12/04 07:40:55;;;;;;;69.28;29.65;;;1.20;99.90;;;;;;5051639;28;20029;-96
2022/12/04 07:43:21;;;;;;;75.88;30.40;;;1.20;99.90;;;;;;5067092;28;20078;-96
2022/12/04 07:45:47;;;;;;;71.82;30.38;;;1.20;99.90;;;;;;5058291;28;20048;-93
2022/12/04 07:48:12;;;;;;;72.07;29.45;;;1.20;99.90;;;;;;5061696;28;20112;-92
2022/12/04 07:50:38;;;;;;;82.78;31.48;;;1.20;99.90;;;;;;5067878;28;20025;-96
2022/12/04 07:53:04;;;;;;;73.43;30.30;;;1.20;99.90;;;;;;5071085;28;20086;-94
2022/12/04 07:55:29;;;;;;;80.22;31.60;;;1.30;99.90;;;;;;5070420;28;20017;-94
2022/12/04 07:57:55;;;;;;;70.65;27.45;;;1.20;99.90;;;;;;5067906;28;20031;-94
2022/12/04 08:00:21;;;;;;;73.43;30.42;;;1.20;99.90;;;;;;5070459;28;20021;-96
2022/12/04 08:02:49;;;;;;;79.10;30.95;;;1.20;99.90;;;;;;5063638;28;20088;-93
2022/12/04 08:05:16;;;;;;;72.38;29.88;;;1.30;99.90;;;;;;5063397;28;20052;-94
2022/12/04 08:07:42;;;;;;;74.10;30.48;;;1.30;99.90;;;;;;5061994;28;20020;-96
2022/12/04 08:10:20;;;;;;;72.25;27.98;;;1.30;99.90;;;;;;5066150;28;20029;-95
2022/12/04 08:12:56;;;;;;;73.30;31.05;;;1.20;99.90;;;;;;5047316;28;20025;-94
2022/12/04 08:15:23;;;;;;;68.47;27.92;;;1.30;99.90;;;;;;5073420;28;20108;-94
2022/12/04 08:17:49;;;;;;;61.58;27.38;;;1.30;99.90;;;;;;5066021;28;20029;-95
2022/12/04 08:20:15;;;;;;;69.95;27.70;;;1.30;99.90;;;;;;5069308;28;20033;-95
2022/12/04 08:22:41;;;;;;;67.38;28.20;;;1.40;99.90;;;;;;5062278;28;20037;-94
2022/12/04 08:25:30;;;;;;;70.70;27.90;;;1.30;99.90;;;;;;5056440;28;20081;-95
2022/12/04 08:27:55;;;;;;;62.45;24.52;;;1.30;99.90;;;;;;5064845;28;20021;-94
2022/12/04 08:30:21;;;;;;;70.90;27.13;;;1.40;99.90;;;;;;5057797;28;20029;-93
2022/12/04 08:32:48;;;;;;;69.45;28.55;;;1.40;99.90;;;;;;5070623;28;20040;-94
2022/12/04 08:35:44;;;;;;;69.68;26.92;;;1.30;99.90;;;;;;5076471;28;20045;-95
2022/12/04 08:38:12;;;;;;;70.38;29.13;;;1.40;99.90;;;;;;5067173;28;20128;-94
2022/12/04 08:40:37;;;;;;;72.10;28.55;;;1.40;99.90;;;;;;5053342;28;20033;-95
2022/12/04 08:43:03;;;;;;;65.57;26.15;;;1.50;99.90;;;;;;5067511;28;20079;-95
2022/12/04 08:45:29;;;;;;;63.90;25.65;;;1.50;99.90;;;;;;5040260;28;20065;-95
2022/12/04 08:47:54;;;;;;;61.67;27.85;;;1.50;99.90;;;;;;5069988;28;20433;-94
2022/12/04 08:50:20;;;;;;;59.85;26.83;;;1.50;99.90;;;;;;5063395;28;20101;-94
2022/12/04 08:52:48;;;;;;;60.42;24.63;;;1.50;99.90;;;;;;5062879;28;20032;-95
2022/12/04 08:55:13;;;;;;;59.60;24.33;;;1.60;99.90;;;;;;5064134;28;20021;-94
2022/12/04 08:57:43;;;;;;;58.00;25.80;;;1.60;99.90;;;;;;5065735;28;20068;-95
2022/12/04 09:00:09;;;;;;;66.78;25.65;;;1.60;99.90;;;;;;5048662;28;20040;-96
2022/12/04 09:02:36;;;;;;;57.70;24.20;;;1.60;99.90;;;;;;5060687;28;20040;-95
2022/12/04 09:05:21;;;;;;;62.50;24.13;;;1.70;99.90;;;;;;5051766;28;20029;-95
2022/12/04 09:07:47;;;;;;;59.35;23.92;;;1.70;99.90;;;;;;5060092;28;20017;-94
2022/12/04 09:10:13;;;;;;;60.15;25.13;;;1.70;99.90;;;;;;5069638;28;20079;-94
2022/12/04 09:12:41;;;;;;;59.42;24.92;;;1.70;99.90;;;;;;5063797;28;20037;-96
2022/12/04 09:15:10;;;;;;;55.95;24.80;;;1.70;99.90;;;;;;5072318;28;20486;-95
2022/12/04 09:17:35;;;;;;;62.47;25.48;;;1.70;99.90;;;;;;5070112;28;20041;-95
2022/12/04 09:20:04;;;;;;;52.63;23.30;;;1.70;99.90;;;;;;5065951;28;20060;-95
2022/12/04 09:22:36;;;;;;;52.50;23.15;;;1.70;99.90;;;;;;5078331;28;20024;-95
2022/12/04 09:25:04;;;;;;;54.60;22.50;;;1.60;99.90;;;;;;5058306;28;20032;-96
2022/12/04 09:27:34;;;;;;;57.80;23.30;;;1.70;99.90;;;;;;5067278;28;20053;-96
2022/12/04 09:30:00;;;;;;;59.45;24.98;;;1.60;99.90;;;;;;5059450;28;20469;-94
2022/12/04 09:32:26;;;;;;;67.05;25.88;;;1.60;99.90;;;;;;5063078;28;20039;-93
2022/12/04 09:34:51;;;;;;;54.90;24.40;;;1.60;99.90;;;;;;5064535;28;20067;-94
2022/12/04 09:37:17;;;;;;;59.00;25.25;;;1.60;99.90;;;;;;5077717;28;20041;-96
2022/12/04 09:39:46;;;;;;;60.35;25.55;;;1.60;99.90;;;;;;5060718;28;20051;-93
2022/12/04 09:42:23;;;;;;;61.28;26.20;;;1.60;99.90;;;;;;5062279;28;20099;-95
2022/12/04 09:44:58;;;;;;;56.53;23.60;;;1.60;99.90;;;;;;5060152;28;20065;-95
2022/12/04 09:47:34;;;;;;;61.08;25.15;;;1.60;99.90;;;;;;5061544;28;20025;-95
2022/12/04 09:50:11;;;;;;;60.58;24.08;;;1.60;99.90;;;;;;5058748;28;20021;-95
2022/12/04 09:53:01;;;;;;;56.10;24.70;;;1.50;99.90;;;;;;5061814;28;20918;-93
2022/12/04 09:55:36;;;;;;;54.20;23.25;;;1.50;99.90;;;;;;5062975;28;20368;-92
2022/12/04 09:58:25;;;;;;;52.72;21.65;;;1.50;99.90;;;;;;5060188;28;20065;-95
2022/12/04 10:00:53;;;;;;;58.75;24.15;;;1.60;99.90;;;;;;5075270;28;20067;-94
2022/12/04 10:03:21;;;;;;;53.70;22.23;;;1.50;99.90;;;;;;5061166;28;20060;-94
2022/12/04 10:06:28;;;;;;;54.20;22.75;;;1.60;99.90;;;;;;5046708;28;20025;-93
2022/12/04 10:09:06;;;;;;;49.88;22.08;;;1.70;99.90;;;;;;4987222;28;20029;-93
2022/12/04 10:11:40;;;;;;;52.30;22.35;;;1.70;99.90;;;;;;5047037;28;20052;-95
2022/12/04 10:14:21;;;;;;;44.40;20.45;;;1.70;99.90;;;;;;5056261;28;20047;-94
2022/12/04 10:17:05;;;;;;;50.33;21.08;;;1.70;99.90;;;;;;5057872;28;20032;-92
2022/12/04 10:19:39;;;;;;;43.10;19.25;;;1.70;99.90;;;;;;5061018;28;20021;-95
2022/12/04 10:22:19;;;;;;;46.22;20.15;;;1.70;99.90;;;;;;5051594;28;20034;-94
2022/12/04 10:24:54;;;;;;;45.53;20.90;;;1.70;99.90;;;;;;5053663;28;20028;-94
2022/12/04 10:27:27;;;;;;;40.28;18.20;;;1.70;99.90;;;;;;5057398;28;20032;-95
2022/12/04 10:30:20;;;;;;;40.40;18.08;;;1.70;99.90;;;;;;5059454;28;20093;-95
2022/12/04 10:32:51;;;;;;;40.20;17.88;;;1.70;99.90;;;;;;5055990;28;20026;-95
2022/12/04 10:35:23;;;;;;;37.47;17.40;;;1.80;99.90;;;;;;5055943;28;20681;-94
2022/12/04 10:38:02;;;;;;;41.03;18.30;;;1.70;99.90;;;;;;5062963;28;20475;-93
2022/12/04 10:40:34;;;;;;;37.88;17.88;;;1.80;99.90;;;;;;5051538;28;20272;-92
2022/12/04 10:43:10;;;;;;;40.95;18.58;;;1.80;99.90;;;;;;5055496;28;20036;-94
2022/12/04 10:45:36;;;;;;;41.97;18.73;;;1.80;99.90;;;;;;5043703;28;20053;-92
2022/12/04 10:48:01;;;;;;;43.63;18.85;;;1.90;99.90;;;;;;5060303;28;20082;-94
2022/12/04 10:50:27;;;;;;;46.70;19.55;;;1.90;99.90;;;;;;5048560;28;20427;-92
2022/12/04 10:52:53;;;;;;;42.40;18.88;;;2.00;99.90;;;;;;5053819;28;20025;-93
2022/12/04 10:55:30;;;;;;;36.63;17.15;;;2.10;99.90;;;;;;5063679;28;20033;-95
2022/12/04 10:57:55;;;;;;;40.05;17.58;;;2.20;99.90;;;;;;5070356;28;20095;-94
2022/12/04 11:00:33;;;;;;;40.25;17.73;;;2.20;99.90;;;;;;5062712;28;20044;-95
2022/12/04 11:03:07;;;;;;;42.67;18.55;;;2.20;99.90;;;;;;5064979;28;20036;-94
2022/12/04 11:05:45;;;;;;;39.50;18.35;;;2.20;99.90;;;;;;5063137;28;20010;-96
2022/12/04 11:08:32;;;;;;;42.95;19.73;;;2.20;99.90;;;;;;5072008;28;20041;-95
2022/12/04 11:11:05;;;;;;;34.90;16.58;;;2.10;99.90;;;;;;5068235;28;20097;-96
2022/12/04 11:13:42;;;;;;;33.10;16.20;;;2.10;99.90;;;;;;5073809;28;20029;-95
2022/12/04 11:16:38;;;;;;;32.15;15.95;;;2.10;99.90;;;;;;5074549;28;20032;-96
2022/12/04 11:19:24;;;;;;;34.55;16.98;;;2.10;99.90;;;;;;5043837;28;20040;-96
2022/12/04 11:21:53;;;;;;;35.28;17.48;;;2.10;99.90;;;;;;5060420;28;20033;-94
2022/12/04 11:24:28;;;;;;;31.88;16.52;;;2.00;99.90;;;;;;5067964;28;20039;-95
2022/12/04 11:26:55;;;;;;;34.92;17.13;;;2.00;99.90;;;;;;5063324;28;20024;-94
2022/12/04 11:29:28;;;;;;;36.33;17.10;;;2.10;99.90;;;;;;5066125;28;20053;-96
2022/12/04 11:31:56;;;;;;;35.15;17.55;;;2.10;99.90;;;;;;5066586;28;20059;-94
2022/12/04 11:34:33;;;;;;;32.47;16.25;;;2.00;99.90;;;;;;5065099;28;20482;-95
2022/12/04 11:36:59;;;;;;;33.78;15.38;;;2.00;99.90;;;;;;5068113;28;20025;-96
2022/12/04 11:39:31;;;;;;;35.30;16.85;;;2.00;99.90;;;;;;5067150;28;20129;-95
2022/12/04 11:42:15;;;;;;;36.97;17.27;;;2.00;99.90;;;;;;5055733;28;20029;-93
2022/12/04 11:44:56;;;;;;;31.50;16.25;;;2.00;99.90;;;;;;5062324;28;20071;-94
2022/12/04 11:47:25;;;;;;;36.72;17.77;;;2.00;99.90;;;;;;5066782;28;20037;-95
2022/12/04 11:50:17;;;;;;;30.63;16.13;;;2.00;99.90;;;;;;5064965;28;20053;-95
2022/12/04 11:52:54;;;;;;;35.92;17.50;;;2.00;99.90;;;;;;5061361;28;20048;-94
2022/12/04 11:55:42;;;;;;;33.83;16.50;;;2.00;99.90;;;;;;5050407;28;20025;-95
2022/12/04 11:58:27;;;;;;;31.15;14.88;;;2.00;99.90;;;;;;5058024;28;20044;-94
2022/12/04 12:01:31;;;;;;;36.13;17.13;;;2.00;99.90;;;;;;5060689;28;20018;-95
2022/12/04 12:04:25;;;;;;;31.38;16.83;;;2.10;99.90;;;;;;5058283;28;20048;-94
2022/12/04 12:07:12;;;;;;;33.97;17.17;;;2.10;99.90;;;;;;5063298;28;20018;-96
2022/12/04 12:10:05;;;;;;;34.55;15.98;;;2.10;99.90;;;;;;5066507;28;20017;-94
2022/12/04 12:13:09;;;;;;;33.35;16.15;;;2.10;99.90;;;;;;5066034;28;20048;-94
2022/12/04 12:16:13;;;;;;;29.88;14.60;;;2.10;99.90;;;;;;5068000;28;20034;-94
2022/12/04 12:18:48;;;;;;;30.27;15.32;;;2.10;99.90;;;;;;5065208;28;20063;-95
2022/12/04 12:21:26;;;;;;;33.95;16.27;;;2.10;99.90;;;;;;5072379;28;20052;-95
2022/12/04 12:24:27;;;;;;;36.78;16.30;;;2.20;99.90;;;;;;5069918;28;20059;-96
2022/12/04 12:26:57;;;;;;;34.88;16.38;;;2.20;99.90;;;;;;5022472;28;20037;-94
2022/12/04 12:29:45;;;;;;;30.88;14.88;;;2.20;99.90;;;;;;5060980;28;20053;-94
2022/12/04 12:32:32;;;;;;;33.03;16.33;;;2.20;99.90;;;;;;5060967;28;20029;-94
2022/12/04 12:34:59;;;;;;;33.85;15.60;;;2.20;99.90;;;;;;5065236;28;20029;-95
2022/12/04 12:37:28;;;;;;;29.70;15.75;;;2.30;99.90;;;;;;5072995;28;20036;-95
2022/12/04 12:40:01;;;;;;;29.95;15.60;;;2.30;99.90;;;;;;5074647;28;20013;-93
2022/12/04 12:42:34;;;;;;;33.10;16.25;;;2.30;99.90;;;;;;5067995;28;20036;-95
2022/12/04 12:45:26;;;;;;;31.02;16.05;;;2.30;99.90;;;;;;5067232;28;20049;-95
2022/12/04 12:47:57;;;;;;;30.90;15.38;;;2.30;99.90;;;;;;5066567;28;20026;-96
2022/12/04 12:50:30;;;;;;;30.83;15.38;;;2.30;99.90;;;;;;5054476;28;20029;-95
2022/12/04 12:53:06;;;;;;;35.53;16.40;;;2.30;99.90;;;;;;5066313;28;20579;-96
2022/12/04 12:55:48;;;;;;;29.80;14.93;;;2.30;99.90;;;;;;5072408;28;20033;-95
2022/12/04 12:58:36;;;;;;;27.67;14.65;;;2.30;99.90;;;;;;5052304;28;20040;-95
2022/12/04 13:01:19;;;;;;;33.00;14.93;;;2.30;99.90;;;;;;5063585;28;20029;-94
2022/12/04 13:03:53;;;;;;;;;;;2.30;99.90;;;;;;5065390;28;20037;-96
2022/12/04 13:06:44;;;;;;;30.55;15.38;;;2.40;99.90;;;;;;5070322;28;19952;-95
2022/12/04 13:09:45;;;;;;;26.92;14.15;;;2.30;99.90;;;;;;5063656;28;20403;-96
2022/12/04 13:12:15;;;;;;;29.20;15.48;;;2.30;99.90;;;;;;5046788;28;20104;-95
2022/12/04 13:14:40;;;;;;;31.90;15.43;;;2.30;99.90;;;;;;5069403;28;20025;-95
2022/12/04 13:17:34;;;;;;;31.50;14.20;;;2.30;99.90;;;;;;5074160;28;20059;-95
2022/12/04 13:20:05;;;;;;;28.95;15.60;;;2.40;99.90;;;;;;5056242;28;20180;-94
2022/12/04 13:22:54;;;;;;;25.27;13.50;;;2.40;99.90;;;;;;5068616;28;20017;-95